Flight Track Log - Related Links

Times and Time Zones

All times are in EDT time to prevent confusion due to time zone crossing. See the DAL1118 flight status page for this flight to view local times or setup timezone preferences in your user account.

Time Position Orientation Groundspeed Altitude Reporting Facility
EDT Latitude Longitude Course Direction KTS MPH feet Rate Location/Type
Sun 07:22:34 PM 40.8142 -111.9625 90° East 213 245 5,100  Level Salt Lake Center
Sun 07:23:04 PM 40.8408 -111.9678 351° North 204 235 5,800 1,553 Climbing Salt Lake Center
Sun 07:23:59 PM 40.9006 -111.9758 354° North 253 291 7,300 2,231 Climbing Salt Lake Center
Sun 07:25:00 PM 41.1333 -111.9144 90° East  Level FlightAware Approximate
Sun 07:25:05 PM 40.9892 -111.9881 354° North 277 319 10,300  Level Salt Lake Center
Sun 07:26:00 PM 41.1167 -111.7512 90° East  Level FlightAware Approximate
Sun 07:26:15 PM 41.0692 -111.9997 354° North 291 335 12,900  Level Salt Lake Center
Sun 07:27:00 PM 41.0271 -111.6305 135° Southeast  Level FlightAware Approximate
Sun 07:28:00 PM 41.0333 -111.4784 90° East  Level FlightAware Approximate
Sun 07:28:18 PM 41.0886 -111.7975 83° East 304 350 17,400  Level Salt Lake Center
Sun 07:29:20 PM 41.0467 -111.6842 116° Southeast 337 388 18,900 1,694 Climbing Salt Lake Center
Sun 07:30:22 PM 41.0192 -111.5522 105° East 370 426 20,900 1,951 Climbing Salt Lake Center
Sun 07:31:23 PM 41.0031 -111.4106 99° East 388 447 22,900 2,000 Climbing Salt Lake Center
Sun 07:32:25 PM 40.9814 -111.2369 99° East 399 459 25,000 1,707 Climbing Salt Lake Center
Sun 07:33:26 PM 40.9853 -111.0839 88° East 416 479 26,400 1,366 Climbing Salt Lake Center
Sun 07:34:28 PM 41.0167 -110.9308 75° East 429 494 27,800 1,306 Climbing Salt Lake Center
Sun 07:35:30 PM 41.0581 -110.7764 70° East 442 509 29,100 1,171 Climbing Salt Lake Center
Sun 07:36:31 PM 41.1003 -110.6200 70° East 450 518 30,200 1,122 Climbing Salt Lake Center
Sun 07:37:33 PM 41.1447 -110.4517 71° East 460 529 31,400 968 Climbing Salt Lake Center
Sun 07:38:35 PM 41.1931 -110.2669 71° East 472 543 32,200 732 Climbing Salt Lake Center
Sun 07:39:36 PM 41.2353 -110.1050 71° East 484 557 32,900 732 Climbing Salt Lake Center
Sun 07:40:38 PM 41.2775 -109.9392 71° East 493 567 33,700 532 Climbing Salt Lake Center
Sun 07:41:40 PM 41.3286 -109.7433 71° East 502 578 34,000 146 Climbing Salt Lake Center
Sun 07:42:41 PM 41.3708 -109.5769 71° East 498 573 34,000  Level Salt Lake Center
Sun 07:43:43 PM 41.4197 -109.3817 71° East 497 572 34,000  Level Salt Lake Center
Sun 07:44:45 PM 41.4622 -109.2139 71° East 495 570 34,000  Level Salt Lake Center
Sun 07:45:46 PM 41.5067 -109.0383 71° East 496 571 34,000  Level Salt Lake Center
Sun 07:46:48 PM 41.5544 -108.8431 72° East 492 566 34,000  Level Salt Lake Center
Sun 07:47:50 PM 41.5961 -108.6747 72° East 497 572 34,000 98 Level Salt Lake Center
Sun 07:48:51 PM 41.6361 -108.5056 72° East 500 575 34,200 488 Climbing Salt Lake Center
Sun 07:49:53 PM 41.6831 -108.3086 72° East 500 575 35,000 387 Climbing Salt Lake Center
Sun 07:50:55 PM 41.7247 -108.1394 72° East 499 574 35,000  Level Salt Lake Center
Sun 07:51:37 PM 41.7583 -107.9981 72° East 496 571 35,000  Level Denver Center
Sun 07:52:39 PM 41.7983 -107.8297 72° East 496 571 35,000  Level Denver Center
Sun 07:53:41 PM 41.8439 -107.6328 73° East 496 571 35,000  Level Denver Center
Sun 07:54:43 PM 41.8825 -107.4661 73° East 492 566 35,000  Level Denver Center
Sun 07:55:45 PM 41.9297 -107.2717 72° East 491 565 35,000  Level Denver Center
Sun 07:56:47 PM 41.9675 -107.1017 73° East 497 572 35,000  Level Denver Center
Sun 07:57:49 PM 42.0139 -106.9031 72° East 499 574 35,000  Level Denver Center
Sun 07:58:51 PM 42.0514 -106.7314 74° East 501 577 35,000  Level Denver Center
Sun 07:59:53 PM 42.0894 -106.5578 73° East 506 582 35,000  Level Denver Center
Sun 08:00:55 PM 42.1364 -106.3431 74° East 506 582 35,000  Level Denver Center
Sun 08:01:57 PM 42.1750 -106.1692 73° East 507 583 35,000  Level Denver Center
Sun 08:02:59 PM 42.2125 -105.9950 74° East 505 581 35,000  Level Denver Center
Sun 08:04:01 PM 42.2569 -105.7922 73° East 506 582 35,000  Level Denver Center
Sun 08:05:03 PM 42.2947 -105.6186 74° East 504 580 35,000  Level Denver Center
Sun 08:06:05 PM 42.3369 -105.4150 74° East 506 582 35,000  Level Denver Center
Sun 08:07:07 PM 42.3742 -105.2394 74° East 509 586 35,000  Level Denver Center
Sun 08:08:09 PM 42.4167 -105.0353 74° East 507 583 35,000  Level Denver Center
Sun 08:09:10 PM 42.4525 -104.8594 75° East 506 582 35,000  Level Denver Center
Sun 08:10:12 PM 42.4928 -104.6556 75° East 508 585 35,000  Level Denver Center
Sun 08:11:14 PM 42.5281 -104.4822 75° East 515 593 35,000  Level Denver Center
Sun 08:12:16 PM 42.5694 -104.2825 74° East 502 578 35,000  Level Denver Center
Sun 08:13:18 PM 42.6042 -104.1092 75° East 499 574 35,000  Level Denver Center
Sun 08:14:20 PM 42.6442 -103.9061 75° East 500 575 35,000  Level Denver Center
Sun 08:15:22 PM 42.6775 -103.7322 75° East 499 574 35,000  Level Denver Center
Sun 08:16:24 PM 42.7164 -103.5306 75° East 497 572 35,000  Level Denver Center
Sun 08:17:25 PM 42.7497 -103.3569 75° East 497 572 35,000  Level Denver Center
Sun 08:18:27 PM 42.7881 -103.1539 76° East 496 571 35,000  Level Denver Center
Sun 08:19:29 PM 42.8217 -102.9792 75° East 500 575 35,000  Level Denver Center
Sun 08:20:30 PM 42.8489 -102.8344 76° East 497 572 35,000  Level Denver Center
Sun 08:21:32 PM 42.8889 -102.6103 76° East 480 552 35,000  Level Denver Center
Sun 08:22:34 PM 42.9247 -102.4144 76° East 478 550 35,000  Level Denver Center
Sun 08:23:36 PM 42.9536 -102.2494 76° East 471 542 35,000  Level Denver Center
Sun 08:24:38 PM 42.9828 -102.0842 76° East 468 539 35,000  Level Denver Center
Sun 08:25:40 PM 43.0175 -101.8936 76° East 466 536 35,000  Level Denver Center
Sun 08:26:42 PM 43.0489 -101.7194 76° East 470 541 35,000  Level Denver Center
Sun 08:27:43 PM 43.0803 -101.5322 77° East 483 556 35,000  Level Denver Center
Sun 08:28:45 PM 43.1106 -101.3528 77° East 485 558 35,000  Level Denver Center
Sun 08:29:47 PM 43.1408 -101.1767 77° East 480 552 35,000  Level Denver Center
Sun 08:30:49 PM 43.1706 -101.0000 77° East 478 550 35,000  Level Denver Center
Sun 08:31:51 PM 43.1997 -100.8264 77° East 471 542 35,000  Level Denver Center
Sun 08:32:53 PM 43.2353 -100.6103 77° East 483 556 35,000  Level Denver Center
Sun 08:33:54 PM 43.2642 -100.4319 77° East 482 555 35,000  Level Denver Center
Sun 08:34:39 PM 43.2817 -100.3258 77° East 482 555 35,000  Level Minneapolis Center
Sun 08:35:41 PM 43.3150 -100.1192 77° East 470 541 35,000  Level Minneapolis Center
Sun 08:36:43 PM 43.3411 -99.9531 78° East 454 522 35,000  Level Minneapolis Center
Sun 08:37:45 PM 43.3672 -99.7847 78° East 453 521 35,000  Level Minneapolis Center
Sun 08:38:46 PM 43.3931 -99.6158 78° East 453 521 35,000  Level Minneapolis Center
Sun 08:39:48 PM 43.4194 -99.4503 78° East 448 516 35,000  Level Minneapolis Center
Sun 08:40:50 PM 43.4453 -99.2803 78° East 452 520 35,000  Level Minneapolis Center
Sun 08:41:52 PM 43.4706 -99.1097 78° East 456 525 35,000  Level Minneapolis Center
Sun 08:42:53 PM 43.5014 -98.9000 78° East 463 533 35,000  Level Minneapolis Center
Sun 08:43:55 PM 43.5264 -98.7308 78° East 461 531 35,000  Level Minneapolis Center
Sun 08:44:57 PM 43.5519 -98.5522 79° East 463 533 35,000 629 Level Minneapolis Center
Sun 08:45:59 PM 43.5772 -98.3761 79° East 469 540 36,300 968 Climbing Minneapolis Center
Sun 08:47:01 PM 43.6006 -98.2117 79° East 446 513 37,000 341 Climbing Minneapolis Center
Sun 08:48:02 PM 43.6244 -98.0425 79° East 448 516 37,000  Level Minneapolis Center
Sun 08:49:04 PM 43.6483 -97.8719 79° East 452 520 37,000  Level Minneapolis Center
Sun 08:50:06 PM 43.6764 -97.6669 79° East 454 522 37,000  Level Minneapolis Center
Sun 08:51:08 PM 43.6997 -97.4958 79° East 456 525 37,000  Level Minneapolis Center
Sun 08:52:10 PM 43.7217 -97.3258 80° East 454 522 37,000  Level Minneapolis Center
Sun 08:53:12 PM 43.7444 -97.1589 79° East 447 514 37,000  Level Minneapolis Center
Sun 08:54:14 PM 43.7658 -96.9928 80° East 442 509 37,000  Level Minneapolis Center
Sun 08:55:15 PM 43.7869 -96.8242 80° East 446 513 37,000  Level Minneapolis Center
Sun 08:56:17 PM 43.8131 -96.6244 80° East 445 512 37,000  Level Minneapolis Center
Sun 08:57:19 PM 43.8342 -96.4558 80° East 448 516 37,000  Level Minneapolis Center
Sun 08:58:21 PM 43.8553 -96.2878 80° East 448 516 37,000  Level Minneapolis Center
Sun 08:59:23 PM 43.8761 -96.1203 80° East 447 514 37,000  Level Minneapolis Center
Sun 09:00:25 PM 43.8956 -95.9517 81° East 449 517 37,000  Level Minneapolis Center
Sun 09:01:27 PM 43.9203 -95.7514 80° East 445 512 37,000  Level Minneapolis Center
Sun 09:02:28 PM 43.9403 -95.5844 80° East 443 510 37,000  Level Minneapolis Center
Sun 09:03:30 PM 43.9589 -95.4158 81° East 444 511 37,000  Level Minneapolis Center
Sun 09:04:32 PM 43.9783 -95.2472 81° East 446 513 37,000  Level Minneapolis Center
Sun 09:05:34 PM 43.9972 -95.0792 81° East 443 510 37,000  Level Minneapolis Center
Sun 09:06:36 PM 44.0150 -94.9083 82° East 448 516 37,000  Level Minneapolis Center
Sun 09:07:37 PM 44.0381 -94.7028 81° East 451 519 37,000  Level Minneapolis Center
Sun 09:08:39 PM 44.0581 -94.5319 81° East 450 518 37,000  Level Minneapolis Center
Sun 09:09:41 PM 44.0750 -94.3694 82° East 449 517 37,000  Level Minneapolis Center
Sun 09:10:43 PM 44.0908 -94.1983 83° East 449 517 37,000  Level Minneapolis Center
Sun 09:11:45 PM 44.1097 -94.0297 81° East 445 512 37,000  Level Minneapolis Center
Sun 09:12:46 PM 44.1286 -93.8267 83° East 444 511 37,000  Level Minneapolis Center
Sun 09:13:48 PM 44.1467 -93.6589 81° East 443 510 37,000  Level Minneapolis Center
Sun 09:14:50 PM 44.1636 -93.4917 82° East 441 507 37,000  Level Minneapolis Center
Sun 09:15:52 PM 44.1786 -93.3256 83° East 440 506 37,000  Level Minneapolis Center
Sun 09:16:53 PM 44.1950 -93.1589 82° East 439 505 37,000  Level Minneapolis Center
Sun 09:17:55 PM 44.2142 -92.9578 82° East 440 506 37,000  Level Minneapolis Center
Sun 09:18:57 PM 44.2289 -92.7894 83° East 442 509 37,000  Level Minneapolis Center
Sun 09:19:58 PM 44.2450 -92.6208 82° East 443 510 37,000  Level Minneapolis Center
Sun 09:21:12 PM 44.2600 -92.4514 83° East 445 512 37,000  Level Minneapolis Center
Sun 09:22:14 PM 44.2781 -92.2461 83° East 447 514 37,000  Level Minneapolis Center
Sun 09:23:15 PM 44.2933 -92.0747 83° East 448 516 37,000  Level Minneapolis Center
Sun 09:24:17 PM 44.3097 -91.8683 84° East 448 516 37,000  Level Minneapolis Center
Sun 09:25:30 PM 44.3242 -91.6972 83° East 447 514 37,000  Level Minneapolis Center
Sun 09:26:32 PM 44.3422 -91.4919 83° East 447 514 37,000  Level Minneapolis Center
Sun 09:27:33 PM 44.3522 -91.3558 84° East 445 512 37,000  Level Minneapolis Center
Sun 09:28:35 PM 44.3672 -91.1528 84° East 442 509 37,000  Level Minneapolis Center
Sun 09:29:36 PM 44.3814 -90.9822 83° East 444 511 37,000  Level Minneapolis Center
Sun 09:30:50 PM 44.3983 -90.7611 84° East 448 516 37,000  Level Minneapolis Center
Sun 09:31:51 PM 44.4103 -90.5883 84° East 447 514 37,000  Level Minneapolis Center
Sun 09:32:53 PM 44.4211 -90.4156 85° East 446 513 37,000  Level Minneapolis Center
Sun 09:33:54 PM 44.4331 -90.2411 84° East 448 516 37,000  Level Minneapolis Center
Sun 09:34:56 PM 44.4472 -90.0367 84° East 451 519 37,000  Level Minneapolis Center
Sun 09:35:57 PM 44.4589 -89.8606 85° East 453 521 37,000  Level Minneapolis Center
Sun 09:36:58 PM 44.4689 -89.6869 85° East 449 517 37,000  Level Minneapolis Center
Sun 09:37:59 PM 44.4814 -89.5128 84° East 448 516 37,000  Level Minneapolis Center
Sun 09:39:01 PM 44.4906 -89.3408 86° East 444 511 37,000  Level Minneapolis Center
Sun 09:40:02 PM 44.5025 -89.1658 84° East 446 513 37,000  Level Minneapolis Center
Sun 09:41:03 PM 44.5125 -88.9903 85° East 451 519 37,000  Level Minneapolis Center
Sun 09:42:04 PM 44.5217 -88.8136 86° East 451 519 37,000  Level Minneapolis Center
Sun 09:43:06 PM 44.5317 -88.6383 85° East 454 522 37,000  Level Minneapolis Center
Sun 09:44:07 PM 44.5417 -88.4603 85° East 457 526 37,000  Level Minneapolis Center
Sun 09:45:08 PM 44.5506 -88.2842 86° East 453 521 37,000  Level Minneapolis Center
Sun 09:46:09 PM 44.5319 -88.0819 97° East 446 513 37,000  Level Minneapolis Center
Sun 09:47:10 PM 44.4950 -87.9117 107° East 449 517 37,000  Level Minneapolis Center
Sun 09:48:11 PM 44.4603 -87.7478 106° East 446 513 37,000  Level Minneapolis Center
Sun 09:49:25 PM 44.4183 -87.5519 107° East 450 518 37,000  Level Minneapolis Center
Sun 09:50:26 PM 44.3817 -87.3833 107° East 452 520 37,000  Level Minneapolis Center
Sun 09:51:27 PM 44.3450 -87.2144 107° East 455 524 37,000  Level Minneapolis Center
Sun 09:52:28 PM 44.3072 -87.0436 107° East 456 525 37,000  Level Minneapolis Center
Sun 09:53:29 PM 44.2697 -86.8753 107° East 458 527 37,000  Level Minneapolis Center
Sun 09:54:30 PM 44.2322 -86.7056 107° East 461 531 37,000 -49 Level Minneapolis Center
Sun 09:55:31 PM 44.1947 -86.5389 107° East 457 526 36,900  Descending Minneapolis Center
Sun 09:56:32 PM 44.1492 -86.3372 107° East 457 526 37,000 49 Climbing Minneapolis Center
Sun 09:57:34 PM 44.1122 -86.1711 107° East 454 522 37,000  Level Minneapolis Center
Sun 09:58:35 PM 44.0728 -86.0044 108° East 457 526 37,000  Level Minneapolis Center
Sun 09:59:48 PM 44.0342 -85.8367 108° East 457 526 37,000  Level Minneapolis Center
Sun 10:00:51 PM 43.9886 -85.6358 107° East 455 524 37,000  Level Minneapolis Center
Sun 10:01:52 PM 43.9486 -85.4700 108° East 453 521 37,000  Level Minneapolis Center
Sun 10:02:53 PM 43.9214 -85.2997 102° East 450 518 37,000  Level Minneapolis Center
Sun 10:03:55 PM 43.9119 -85.1247 94° East 455 524 37,000  Level Minneapolis Center
Sun 10:04:56 PM 43.9031 -84.9517 94° East 451 519 37,000  Level Minneapolis Center
Sun 10:05:57 PM 43.8939 -84.7803 94° East 448 516 37,000  Level Minneapolis Center
Sun 10:06:58 PM 43.8847 -84.6106 94° East 444 511 37,000  Level Minneapolis Center
Sun 10:07:59 PM 43.8736 -84.4072 94° East 442 509 37,000  Level Minneapolis Center
Sun 10:09:00 PM 43.8633 -84.2364 95° East 445 512 37,000  Level Minneapolis Center
Sun 10:10:01 PM 43.8525 -84.0664 95° East 444 511 37,000  Level Minneapolis Center
Sun 10:11:02 PM 43.8450 -83.9294 94° East 446 513 37,000  Level Minneapolis Center
Sun 10:12:03 PM 43.8319 -83.7242 95° East 447 514 37,000  Level Minneapolis Center
Sun 10:13:05 PM 43.8211 -83.5544 95° East 445 512 37,000  Level Minneapolis Center
Sun 10:14:06 PM 43.8103 -83.3853 95° East 443 510 37,000  Level Minneapolis Center
Sun 10:15:07 PM 43.7981 -83.2156 96° East 443 510 37,000  Level Minneapolis Center
Sun 10:16:08 PM 43.7861 -83.0433 95° East 448 516 37,000  Level Minneapolis Center
Sun 10:17:13 PM 43.7500 -82.8167 102° East 450 518 37,000  Level Toronto Center
Sun 10:18:13 PM 43.7333 -82.6500 98° East 450 518 37,000  Level Toronto Center
Sun 10:19:13 PM 43.7333 -82.4667 90° East 450 518 37,000  Level Toronto Center
Sun 10:20:13 PM 43.7167 -82.3167 99° East 460 529 37,000  Level Toronto Center
Sun 10:21:13 PM 43.7000 -82.1167 97° East 450 518 37,000  Level Toronto Center
Sun 10:22:13 PM 43.6833 -81.9667 99° East 450 518 37,000  Level Toronto Center
Sun 10:23:13 PM 43.6833 -81.7833 90° East 450 518 37,000  Level Toronto Center
Sun 10:24:13 PM 43.6667 -81.6167 98° East 450 518 37,000  Level Toronto Center
Sun 10:25:13 PM 43.6500 -81.4500 98° East 450 518 37,000  Level Toronto Center
Sun 10:26:13 PM 43.6333 -81.2667 97° East 440 506 37,000  Level Toronto Center
Sun 10:27:13 PM 43.6167 -81.1000 98° East 450 518 37,000  Level Toronto Center
Sun 10:28:13 PM 43.6000 -80.9500 99° East 450 518 37,000  Level Toronto Center
Sun 10:29:13 PM 43.6000 -80.7667 90° East 450 518 37,000  Level Toronto Center
Sun 10:30:13 PM 43.5833 -80.6000 98° East 450 518 37,000  Level Toronto Center
Sun 10:31:13 PM 43.5667 -80.4167 97° East 450 518 37,000  Level Toronto Center
Sun 10:32:13 PM 43.5500 -80.2500 98° East 450 518 37,000  Level Toronto Center
Sun 10:33:13 PM 43.5333 -80.0667 97° East 450 518 37,000  Level Toronto Center
Sun 10:34:13 PM 43.5167 -79.9167 99° East 450 518 37,000  Level Toronto Center
Sun 10:35:13 PM 43.5000 -79.7167 96° East 450 518 37,000  Level Toronto Center
Sun 10:36:13 PM 43.4833 -79.5667 99° East 450 518 37,000  Level Toronto Center
Sun 10:37:13 PM 43.4667 -79.4000 98° East 450 518 37,000  Level Toronto Center
Sun 10:38:13 PM 43.4500 -79.2500 99° East 450 518 37,000  Level Toronto Center
Sun 10:39:13 PM 43.4333 -79.0667 97° East 450 518 37,000  Level Toronto Center
Sun 10:40:13 PM 43.4167 -78.9000 98° East 450 518 37,000  Level Toronto Center
Sun 10:41:13 PM 43.4000 -78.7167 97° East 450 518 37,000  Level Toronto Center
Sun 10:42:13 PM 43.3667 -78.5500 105° East 450 518 37,000  Level Toronto Center
Sun 10:42:48 PM 43.3706 -78.4728 86° East 445 512 37,000  Level Cleveland Center
Sun 10:43:48 PM 43.3483 -78.2994 100° East 445 512 37,000  Level Cleveland Center
Sun 10:44:48 PM 43.3283 -78.1289 99° East 445 512 37,000  Level Cleveland Center
Sun 10:45:48 PM 43.3100 -77.9614 98° East 445 512 37,000  Level Cleveland Center
Sun 10:46:48 PM 43.2894 -77.7911 99° East 445 512 37,000  Level Cleveland Center
Sun 10:48:50 PM 43.2506 -77.4639 99° East 450 518 37,000  Level Boston Center
Sun 10:49:13 PM 43.2167 -77.3667 116° Southeast 450 518 37,000  Level Toronto Center
Sun 10:50:13 PM 43.2000 -77.1833 97° East 450 518 37,000  Level Toronto Center
Sun 10:51:13 PM 43.1833 -77.0333 99° East 450 518 37,000  Level Toronto Center
Sun 10:52:13 PM 43.1667 -76.8500 97° East 450 518 37,000  Level Toronto Center
Sun 10:53:13 PM 43.1500 -76.6833 98° East 450 518 37,000  Level Toronto Center
Sun 10:54:13 PM 43.1167 -76.5000 104° East 450 518 37,000  Level Toronto Center
Sun 10:55:13 PM 43.1000 -76.3500 99° East 440 506 37,000  Level Toronto Center
Sun 10:55:50 PM 43.1042 -76.2967 84° East 445 512 37,000  Level Boston Center
Sun 10:56:50 PM 43.0825 -76.1303 100° East 445 512 37,000 -50 Level Boston Center
Sun 10:57:50 PM 43.0608 -75.9642 100° East 440 506 36,900  Descending Boston Center
Sun 10:58:50 PM 43.0364 -75.8008 102° East 440 506 37,000  Climbing Boston Center
Sun 10:59:50 PM 43.0142 -75.6378 101° East 435 501 36,900  Descending Boston Center
Sun 11:00:50 PM 42.9878 -75.4547 101° East 435 501 37,000 50 Climbing Boston Center
Sun 11:01:50 PM 42.9647 -75.2947 101° East 435 501 37,000  Level Boston Center
Sun 11:02:50 PM 42.9419 -75.1261 100° East 435 501 37,000  Level Boston Center
Sun 11:03:50 PM 42.9186 -74.9633 101° East 435 501 37,000  Level Boston Center
Sun 11:04:50 PM 42.8950 -74.7953 101° East 435 501 37,000  Level Boston Center
Sun 11:05:50 PM 42.8733 -74.6331 100° East 435 501 37,000 -50 Level Boston Center
Sun 11:06:50 PM 42.8469 -74.4706 102° East 435 501 36,900  Descending Boston Center
Sun 11:07:50 PM 42.8247 -74.3114 101° East 435 501 37,000  Climbing Boston Center
Sun 11:08:50 PM 42.7981 -74.1464 102° East 435 501 36,900  Descending Boston Center
Sun 11:09:50 PM 42.7733 -73.9844 102° East 435 501 37,000  Climbing Boston Center
Sun 11:10:50 PM 42.7483 -73.8228 102° East 435 501 36,900  Descending Boston Center
Sun 11:11:50 PM 42.7356 -73.6781 97° East 428 493 37,000 50 Climbing Boston Center
Sun 11:12:50 PM 42.7183 -73.5167 98° East 428 493 37,000  Level Boston Center
Sun 11:13:50 PM 42.7011 -73.3497 98° East 428 493 37,000 -50 Level Boston Center
Sun 11:14:50 PM 42.6833 -73.1858 98° East 428 493 36,900 -550 Descending Boston Center
Sun 11:15:50 PM 42.6678 -73.0244 97° East 428 493 35,900 -1,400 Descending Boston Center
Sun 11:16:50 PM 42.6478 -72.8522 99° East 448 516 34,100 -2,550 Descending Boston Center
Sun 11:17:50 PM 42.6272 -72.6942 100° East 433 498 30,800 -3,450 Descending Boston Center
Sun 11:18:50 PM 42.6089 -72.5219 98° East 422 486 27,200 -3,100 Descending Boston Center
Sun 11:19:50 PM 42.5858 -72.3639 101° East 446 513 24,600 -3,100 Descending Boston Center
Sun 11:20:50 PM 42.5647 -72.2033 100° East 437 503 21,000 -3,100 Descending Boston Center
Sun 11:21:50 PM 42.5436 -72.0539 101° East 414 476 18,400 -2,400 Descending Boston Center
Sun 11:22:50 PM 42.5325 -71.9075 96° East 389 448 16,200 -2,250 Descending Boston Center
Sun 11:23:50 PM 42.5192 -71.7669 97° East 389 448 13,900 -2,550 Descending Boston Center
Sun 11:24:50 PM 42.5058 -71.6289 97° East 379 436 11,100 -1,794 Descending Boston Center
Sun 11:25:27 PM 42.5000 -71.5333 95° East 368 423 11,000 -247 Descending KA90
Sun 11:26:27 PM 42.4833 -71.4167 101° East 339 390 10,700 -656 Descending KA90
Sun 11:27:35 PM 42.4667 -71.2833 100° East 294 338 9,600 -1,078 Descending KA90
Sun 11:28:35 PM 42.4667 -71.1833 90° East 272 313 8,400 -1,150 Descending KA90
Sun 11:29:35 PM 42.4500 -71.0833 103° East 265 305 7,300 -700 Descending KA90
Sun 11:30:35 PM 42.4333 -71.0167 109° East 225 259 7,000 -536 Descending KA90
Sun 11:31:27 PM 42.3833 -70.9833 154° Southeast 232 267 6,300 -1,018 Descending KA90
Sun 11:32:27 PM 42.3167 -70.9333 151° Southeast 228 262 5,100 -1,158 Descending KA90
Sun 11:33:21 PM 42.2667 -70.9500 194° South 224 258 4,100 -1,250 Descending KA90
Sun 11:34:27 PM 42.2333 -71.0000 228° Southwest 199 229 2,600 -1,190 Descending KA90
Sun 11:35:27 PM 42.2667 -71.0500 312° West 180 207 1,600 -842 Descending KA90
Sun 11:36:21 PM 42.3167 -71.0333 14° North 158 182 1,000 -667 Descending KA90

Login

Don't have an account? Register now (free) for customized features, flight alerts, and more!